Time;durP1;ratioP1;P1;durP2;ratioP2;P2;SDS_P1;SDS_P2;PMS_P1;PMS_P2;Temp;Humidity;BMP_temperature;BMP_pressure;BME280_temperature;BME280_humidity;BME280_pressure;Samples;Min_cycle;Max_cycle;Signal;HPM_P1;HPM_P2
2022/06/01 00:00:43;;;;;;;;;;;;;;;18.95;57.22;100895.41;4935236;28;99366;-84
2022/06/01 00:03:10;;;;;;;;;;;;;;;19.03;57.27;100885.03;4938878;28;96757;-82
2022/06/01 00:05:36;;;;;;;;;;;;;;;18.94;58.55;100883.81;4934703;28;96649;-81
2022/06/01 00:08:03;;;;;;;;;;;;;;;19.06;58.58;100882.13;4930776;28;98312;-81
2022/06/01 00:10:31;;;;;;;;;;;;;;;19.03;58.98;100882.34;4933351;28;100439;-81
2022/06/01 00:12:59;;;;;;;;;;;;;;;19.04;58.47;100879.53;4932757;28;97064;-81
2022/06/01 00:15:26;;;;;;;;;;;;;;;19.11;57.24;100875.47;4931757;28;97531;-81
2022/06/01 00:17:52;;;;;;;;;;;;;;;19.31;56.12;100876.78;4935765;28;99238;-80
2022/06/01 00:20:19;;;;;;;;;;;;;;;19.33;56.59;100874.88;4932497;28;100292;-80
2022/06/01 00:22:46;;;;;;;;;;;;;;;19.49;56.89;100875.50;4927697;28;96884;-81
2022/06/01 00:25:13;;;;;;;;;;;;;;;19.32;57.60;100872.28;4934422;28;96985;-81
2022/06/01 00:27:40;;;;;;;;;;;;;;;19.62;56.68;100877.34;4931643;28;98923;-80
2022/06/01 00:30:09;;;;;;;;;;;;;;;19.55;56.32;100876.94;4927792;28;99074;-80
2022/06/01 00:32:35;;;;;;;;;;;;;;;19.26;58.01;100881.59;4931119;28;97051;-80
2022/06/01 00:35:02;;;;;;;;;;;;;;;19.24;58.11;100880.84;4929254;28;96934;-80
2022/06/01 00:37:28;;;;;;;;;;;;;;;18.89;59.58;100883.28;4932045;28;98849;-82
2022/06/01 00:39:54;;;;;;;;;;;;;;;18.92;59.18;100890.22;4943309;28;98752;-81
2022/06/01 00:42:22;;;;;;;;;;;;;;;18.67;60.38;100889.22;4953440;28;96639;-81
2022/06/01 00:44:49;;;;;;;;;;;;;;;18.95;57.23;100895.41;4952320;28;97474;-80
2022/06/01 00:47:17;;;;;;;;;;;;;;;18.94;56.24;100894.53;4944332;28;98065;-80
2022/06/01 00:49:46;;;;;;;;;;;;;;;19.04;56.01;100889.41;4929830;28;100360;-80
2022/06/01 00:52:12;;;;;;;;;;;;;;;18.99;57.05;100883.50;4932674;28;96891;-79
2022/06/01 00:54:39;;;;;;;;;;;;;;;18.99;56.77;100891.53;4931453;28;96979;-80
2022/06/01 00:57:08;;;;;;;;;;;;;;;19.10;56.39;100881.78;4931661;28;98757;-81
2022/06/01 00:59:37;;;;;;;;;;;;;;;18.37;58.27;100885.00;4933801;28;96880;-80
2022/06/01 01:02:03;;;;;;;;;;;;;;;17.85;58.95;100897.22;4930348;28;96887;-80
2022/06/01 01:04:33;;;;;;;;;;;;;;;18.43;57.82;100898.84;4933685;28;97075;-80
2022/06/01 01:07:02;;;;;;;;;;;;;;;18.55;57.22;100892.72;4929193;28;99315;-79
2022/06/01 01:09:28;;;;;;;;;;;;;;;18.56;56.77;100894.44;4930220;28;98764;-79
2022/06/01 01:11:56;;;;;;;;;;;;;;;18.96;56.26;100892.63;4930146;28;96915;-80
2022/06/01 01:14:25;;;;;;;;;;;;;;;18.97;55.86;100888.94;4928186;28;97017;-80
2022/06/01 01:16:52;;;;;;;;;;;;;;;18.97;56.61;100904.19;4929229;28;99128;-81
2022/06/01 01:19:21;;;;;;;;;;;;;;;19.16;56.50;100896.63;4931372;28;97049;-81
2022/06/01 01:21:51;;;;;;;;;;;;;;;19.07;56.07;100894.56;4928941;28;97255;-80
2022/06/01 01:24:23;;;;;;;;;;;;;;;18.90;56.35;100908.25;4925652;28;98426;-81
2022/06/01 01:26:52;;;;;;;;;;;;;;;18.43;56.37;100906.00;4930791;28;99131;-80
2022/06/01 01:29:32;;;;;;;;;;;;;;;18.68;55.99;100909.66;4936141;28;99525;-80
2022/06/01 01:31:59;;;;;;;;;;;;;;;18.56;55.61;100909.63;4931087;28;96953;-80
2022/06/01 01:34:25;;;;;;;;;;;;;;;18.78;55.34;100906.38;4931575;28;96851;-80
2022/06/01 01:36:55;;;;;;;;;;;;;;;18.81;55.49;100903.50;4928576;28;100963;-80
2022/06/01 01:39:22;;;;;;;;;;;;;;;18.79;55.13;100908.09;4931740;28;97772;-80
2022/06/01 01:41:49;;;;;;;;;;;;;;;18.67;55.05;100899.06;4927098;28;97108;-80
2022/06/01 01:44:19;;;;;;;;;;;;;;;18.79;54.64;100911.63;4935144;28;97138;-79
2022/06/01 01:46:48;;;;;;;;;;;;;;;19.19;54.28;100903.56;4931350;28;98930;-80
2022/06/01 01:49:15;;;;;;;;;;;;;;;19.08;54.38;100907.00;4927271;28;97706;-79
2022/06/01 01:51:42;;;;;;;;;;;;;;;18.95;54.19;100898.94;4928388;28;96915;-79
2022/06/01 01:54:18;;;;;;;;;;;;;;;18.95;54.10;100896.25;4926087;28;97337;-78
2022/06/01 01:56:54;;;;;;;;;;;;;;;18.95;53.48;100895.41;4928045;28;98994;-79
2022/06/01 01:59:28;;;;;;;;;;;;;;;18.86;53.78;100901.34;4929912;28;101649;-79
2022/06/01 02:01:58;;;;;;;;;;;;;;;18.84;52.90;100893.44;4930760;28;96887;-79
2022/06/01 02:07:19;;;;;;;;;;;;;;;18.27;53.46;100903.47;4926474;28;97219;-78
2022/06/01 02:12:42;;;;;;;;;;;;;;;18.59;54.88;100898.72;4929434;28;96894;-78
2022/06/01 02:15:13;;;;;;;;;;;;;;;18.55;55.38;100890.03;4930457;28;96837;-77
2022/06/01 02:17:41;;;;;;;;;;;;;;;18.66;54.62;100890.16;4928963;28;97845;-78
2022/06/01 02:20:10;;;;;;;;;;;;;;;18.59;54.25;100888.00;4930764;28;98979;-78
2022/06/01 02:22:38;;;;;;;;;;;;;;;18.40;55.07;100888.31;4931104;28;97250;-79
2022/06/01 02:25:05;;;;;;;;;;;;;;;18.52;54.30;100884.84;4932186;28;97788;-81
2022/06/01 02:27:31;;;;;;;;;;;;;;;18.58;55.21;100886.28;4931858;28;99318;-81
2022/06/01 02:30:00;;;;;;;;;;;;;;;18.73;52.95;100887.09;4932335;28;99338;-81
2022/06/01 02:32:28;;;;;;;;;;;;;;;18.89;53.50;100885.97;4931558;28;96838;-81
2022/06/01 02:34:55;;;;;;;;;;;;;;;18.70;53.54;100894.38;4933969;28;97102;-81
2022/06/01 02:37:23;;;;;;;;;;;;;;;18.71;54.35;100903.25;4934251;28;98901;-81
2022/06/01 02:39:52;;;;;;;;;;;;;;;18.77;53.34;100893.97;4932060;28;98881;-81
2022/06/01 02:42:29;;;;;;;;;;;;;;;18.83;52.68;100890.88;4923989;28;96854;-82
2022/06/01 02:44:55;;;;;;;;;;;;;;;18.51;52.05;100884.97;4924600;28;96858;-83
2022/06/01 02:47:22;;;;;;;;;;;;;;;18.68;51.00;100888.25;4931804;28;98981;-83
2022/06/01 02:49:49;;;;;;;;;;;;;;;18.57;51.60;100892.63;4932351;28;99142;-81
2022/06/01 02:52:16;;;;;;;;;;;;;;;18.59;51.30;100888.84;4932597;28;97016;-82
2022/06/01 02:54:42;;;;;;;;;;;;;;;18.71;51.76;100895.22;4935589;28;96993;-80
2022/06/01 02:57:08;;;;;;;;;;;;;;;18.76;51.80;100886.91;4931350;28;98056;-80
2022/06/01 02:59:35;;;;;;;;;;;;;;;18.57;51.62;100888.13;4940216;28;97703;-83
2022/06/01 03:02:02;;;;;;;;;;;;;;;18.76;53.90;100884.22;4946951;28;96903;-82
2022/06/01 03:04:28;;;;;;;;;;;;;;;18.77;54.82;100892.16;4957934;28;96809;-81
2022/06/01 03:06:55;;;;;;;;;;;;;;;18.56;56.25;100896.25;4948746;28;97855;-81
2022/06/01 03:09:22;;;;;;;;;;;;;;;18.64;55.16;100896.59;4945377;28;96713;-80
2022/06/01 03:11:48;;;;;;;;;;;;;;;18.55;54.38;100897.16;4932732;28;96803;-81
2022/06/01 03:14:14;;;;;;;;;;;;;;;18.50;54.87;100897.47;4938936;28;96884;-80
2022/06/01 03:16:41;;;;;;;;;;;;;;;17.78;53.16;100900.41;4936588;28;98915;-81
2022/06/01 03:19:07;;;;;;;;;;;;;;;18.42;53.56;100891.78;4933697;28;97948;-81
2022/06/01 03:21:34;;;;;;;;;;;;;;;18.41;52.78;100895.41;4932222;28;97341;-80
2022/06/01 03:24:02;;;;;;;;;;;;;;;18.59;51.43;100894.22;4941433;28;97099;-81
2022/06/01 03:26:28;;;;;;;;;;;;;;;18.70;50.74;100894.38;4933572;28;99416;-83
2022/06/01 03:28:54;;;;;;;;;;;;;;;18.70;50.28;100889.03;4935253;28;98811;-81
2022/06/01 03:31:20;;;;;;;;;;;;;;;18.73;50.64;100881.72;4931960;28;96867;-82
2022/06/01 03:33:47;;;;;;;;;;;;;;;18.70;52.35;100888.16;4932560;28;96852;-81
2022/06/01 03:36:13;;;;;;;;;;;;;;;18.62;53.26;100891.34;4931469;28;99036;-81
2022/06/01 03:38:40;;;;;;;;;;;;;;;18.67;54.17;100897.25;4934886;28;97500;-81
2022/06/01 03:41:07;;;;;;;;;;;;;;;18.68;51.93;100898.09;4935718;28;97198;-83
2022/06/01 03:45:55;;;;;;;;;;;;;;;18.73;51.41;100895.13;4932890;28;97797;-81
2022/06/01 03:46:20;;;;;;;;;;;;;;;18.80;51.56;100891.06;4930072;28;98977;-81
2022/06/01 03:48:46;;;;;;;;;;;;;;;18.78;52.59;100901.00;4933515;28;99362;-83
2022/06/01 03:51:12;;;;;;;;;;;;;;;18.86;51.63;100896.88;4935941;28;96766;-81
2022/06/01 03:53:39;;;;;;;;;;;;;;;18.59;51.50;100910.28;4932113;28;97044;-82
2022/06/01 03:56:07;;;;;;;;;;;;;;;18.68;51.19;100901.66;4935797;28;99538;-82
2022/06/01 03:58:35;;;;;;;;;;;;;;;18.81;50.96;100904.34;4933214;28;97714;-82
2022/06/01 04:01:01;;;;;;;;;;;;;;;18.59;51.25;100904.06;4935697;28;96701;-81
2022/06/01 04:03:28;;;;;;;;;;;;;;;18.96;50.99;100907.81;4933186;28;97002;-81
2022/06/01 04:05:54;;;;;;;;;;;;;;;18.83;50.59;100907.78;4932914;28;99355;-80
2022/06/01 04:08:21;;;;;;;;;;;;;;;18.80;51.28;100904.44;4931931;28;99112;-78
2022/06/01 04:10:47;;;;;;;;;;;;;;;18.95;51.40;100906.97;4931377;28;96895;-78
2022/06/01 04:13:14;;;;;;;;;;;;;;;18.85;51.94;100916.56;4929146;28;96902;-79
2022/06/01 04:15:42;;;;;;;;;;;;;;;18.89;52.29;100914.56;4933233;28;99226;-80
2022/06/01 04:18:09;;;;;;;;;;;;;;;19.08;51.71;100910.53;4931253;28;100112;-80
2022/06/01 04:20:36;;;;;;;;;;;;;;;18.95;51.97;100914.13;4929086;28;96925;-81
2022/06/01 04:23:02;;;;;;;;;;;;;;;18.96;52.07;100914.03;4929877;28;96777;-80
2022/06/01 04:25:30;;;;;;;;;;;;;;;18.98;52.26;100916.59;4933027;28;101333;-79
2022/06/01 04:27:56;;;;;;;;;;;;;;;18.70;53.38;100925.63;4928695;28;98697;-80
2022/06/01 04:30:23;;;;;;;;;;;;;;;18.64;53.67;100923.38;4932630;28;96870;-80
2022/06/01 04:32:52;;;;;;;;;;;;;;;18.66;53.59;100919.63;4928447;28;96749;-80
2022/06/01 04:35:20;;;;;;;;;;;;;;;19.03;51.96;100919.84;4931031;28;101248;-79
2022/06/01 04:37:46;;;;;;;;;;;;;;;19.00;51.88;100920.03;4924912;28;98894;-80
2022/06/01 04:40:13;;;;;;;;;;;;;;;19.27;51.08;100918.16;4932454;28;97047;-79
2022/06/01 04:42:40;;;;;;;;;;;;;;;19.44;50.38;100915.16;4931844;28;96902;-80
2022/06/01 04:45:07;;;;;;;;;;;;;;;19.57;50.13;100917.00;4926478;28;98280;-81
2022/06/01 04:47:34;;;;;;;;;;;;;;;19.42;49.64;100924.28;4931023;28;99177;-80
2022/06/01 04:50:02;;;;;;;;;;;;;;;19.47;49.91;100927.53;4932192;28;98384;-80
2022/06/01 04:52:28;;;;;;;;;;;;;;;20.03;48.52;100928.00;4935178;28;96833;-81
2022/06/01 04:54:54;;;;;;;;;;;;;;;21.48;45.30;100930.47;4930570;28;98985;-79
2022/06/01 04:57:21;;;;;;;;;;;;;;;23.06;40.57;100924.78;4932211;28;97939;-80
2022/06/01 04:59:47;;;;;;;;;;;;;;;26.18;34.78;100932.19;4941608;28;97801;-80
2022/06/01 05:02:14;;;;;;;;;;;;;;;27.82;31.06;100930.88;4937063;28;97247;-80
2022/06/01 05:04:40;;;;;;;;;;;;;;;26.20;32.91;100930.16;4942658;28;99477;-80
2022/06/01 05:07:08;;;;;;;;;;;;;;;24.58;35.48;100933.81;4940141;28;100309;-79
2022/06/01 05:09:34;;;;;;;;;;;;;;;22.71;40.09;100937.66;4935034;28;97149;-81
2022/06/01 05:12:02;;;;;;;;;;;;;;;22.42;40.85;100934.66;4932418;28;96793;-82
2022/06/01 05:14:28;;;;;;;;;;;;;;;21.23;42.88;100927.13;4929154;28;98757;-82
2022/06/01 05:16:57;;;;;;;;;;;;;;;21.20;43.83;100935.44;4931532;28;98794;-81
2022/06/01 05:19:23;;;;;;;;;;;;;;;21.17;43.65;100927.59;4927274;28;96983;-81
2022/06/01 05:21:50;;;;;;;;;;;;;;;20.88;44.21;100925.25;4930695;28;99210;-80
2022/06/01 05:24:17;;;;;;;;;;;;;;;20.64;44.75;100935.16;4929733;28;99193;-81
2022/06/01 05:26:44;;;;;;;;;;;;;;;20.44;46.04;100933.09;4931321;28;97701;-81
2022/06/01 05:29:10;;;;;;;;;;;;;;;20.55;45.64;100934.00;4934188;28;96899;-81
2022/06/01 05:31:36;;;;;;;;;;;;;;;20.49;45.81;100937.16;4934142;28;97085;-82
2022/06/01 05:34:02;;;;;;;;;;;;;;;20.56;45.47;100937.53;4932535;28;100412;-81
2022/06/01 05:36:29;;;;;;;;;;;;;;;21.22;43.71;100936.16;4935888;28;99901;-79
2022/06/01 05:38:55;;;;;;;;;;;;;;;20.99;43.84;100940.56;4936591;28;96713;-82
2022/06/01 05:41:23;;;;;;;;;;;;;;;20.72;44.24;100942.66;4932353;28;97371;-80
2022/06/01 05:43:51;;;;;;;;;;;;;;;20.86;43.49;100937.09;4931280;28;99406;-80
2022/06/01 05:46:18;;;;;;;;;;;;;;;20.62;44.38;100931.72;4931169;28;99334;-80
2022/06/01 05:48:46;;;;;;;;;;;;;;;20.03;45.30;100933.38;4929317;28;96787;-80
2022/06/01 05:51:13;;;;;;;;;;;;;;;20.26;44.77;100928.06;4931749;28;96911;-81
2022/06/01 05:53:39;;;;;;;;;;;;;;;20.54;43.79;100929.63;4931538;28;99096;-81
2022/06/01 05:56:06;;;;;;;;;;;;;;;20.99;43.21;100932.53;4933693;28;98938;-81
2022/06/01 05:58:34;;;;;;;;;;;;;;;21.42;42.09;100933.66;4934866;28;96746;-81
2022/06/01 06:01:01;;;;;;;;;;;;;;;21.41;42.33;100929.25;4936764;28;98770;-82
2022/06/01 06:03:27;;;;;;;;;;;;;;;21.70;41.35;100926.97;4934728;28;98887;-80
2022/06/01 06:08:38;;;;;;;;;;;;;;;21.82;40.61;100926.00;4929334;28;96647;-80
2022/06/01 06:11:06;;;;;;;;;;;;;;;22.42;39.09;100924.75;4931908;28;96864;-81
2022/06/01 06:13:33;;;;;;;;;;;;;;;21.84;39.80;100924.03;4933032;28;97544;-82
2022/06/01 06:16:00;;;;;;;;;;;;;;;21.85;40.22;100935.66;4926086;28;98909;-81
2022/06/01 06:18:26;;;;;;;;;;;;;;;22.08;40.13;100936.53;4934186;28;96847;-80
2022/06/01 06:20:52;;;;;;;;;;;;;;;22.18;39.42;100935.69;4931971;28;96868;-80
2022/06/01 06:23:18;;;;;;;;;;;;;;;22.34;38.82;100929.91;4933077;28;97030;-81
2022/06/01 06:25:45;;;;;;;;;;;;;;;22.04;39.97;100935.09;4926143;28;99020;-80
2022/06/01 06:28:11;;;;;;;;;;;;;;;21.81;40.01;100931.50;4931613;28;96810;-80
2022/06/01 06:30:39;;;;;;;;;;;;;;;21.97;40.22;100928.47;4930719;28;97000;-79
2022/06/01 06:33:06;;;;;;;;;;;;;;;21.76;40.11;100936.38;4932131;28;99381;-82
2022/06/01 06:35:32;;;;;;;;;;;;;;;21.96;39.64;100927.63;4931597;28;98743;-81
2022/06/01 06:37:58;;;;;;;;;;;;;;;22.92;38.26;100923.25;4930646;28;96922;-82
2022/06/01 06:40:25;;;;;;;;;;;;;;;22.81;38.21;100926.00;4932024;28;96822;-80
2022/06/01 06:42:51;;;;;;;;;;;;;;;22.93;37.63;100924.13;4925608;28;97629;-78
2022/06/01 06:45:18;;;;;;;;;;;;;;;22.88;38.09;100924.50;4931895;28;98209;-78
2022/06/01 06:47:45;;;;;;;;;;;;;;;22.22;38.51;100930.91;4928845;28;96799;-79
2022/06/01 06:50:13;;;;;;;;;;;;;;;22.74;37.87;100929.34;4931061;28;96863;-78
2022/06/01 06:52:39;;;;;;;;;;;;;;;22.65;37.79;100929.06;4924965;28;98111;-77
2022/06/01 06:55:06;;;;;;;;;;;;;;;22.71;37.98;100929.56;4931430;28;99078;-72
2022/06/01 06:57:33;;;;;;;;;;;;;;;23.14;37.85;100927.69;4927681;28;97501;-72
2022/06/01 06:59:59;;;;;;;;;;;;;;;22.88;37.29;100920.97;4930666;28;97341;-73
2022/06/01 07:02:26;;;;;;;;;;;;;;;23.87;35.75;100929.44;4931054;28;98956;-77
2022/06/01 07:04:53;;;;;;;;;;;;;;;23.52;36.17;100920.88;4941016;28;98989;-76
2022/06/01 07:07:19;;;;;;;;;;;;;;;24.24;35.45;100913.53;4943954;28;96833;-78
2022/06/01 07:09:46;;;;;;;;;;;;;;;24.04;35.34;100918.00;4935298;28;97401;-77
2022/06/01 07:12:12;;;;;;;;;;;;;;;23.96;35.56;100919.69;4928576;28;99264;-77
2022/06/01 07:14:38;;;;;;;;;;;;;;;23.28;35.91;100929.22;4928458;28;97820;-77
2022/06/01 07:17:05;;;;;;;;;;;;;;;23.64;34.87;100928.75;4929488;28;97555;-77
2022/06/01 07:19:32;;;;;;;;;;;;;;;24.10;34.35;100927.38;4930206;28;96992;-77
2022/06/01 07:21:59;;;;;;;;;;;;;;;23.18;35.44;100934.53;4930161;28;101613;-77
2022/06/01 07:24:25;;;;;;;;;;;;;;;23.66;35.49;100931.31;4927981;28;99113;-77
2022/06/01 07:26:52;;;;;;;;;;;;;;;23.62;35.60;100944.22;4928599;28;98691;-76
2022/06/01 07:29:19;;;;;;;;;;;;;;;23.79;35.06;100942.75;4929284;28;97244;-76
2022/06/01 07:31:46;;;;;;;;;;;;;;;22.74;36.47;100942.81;4924838;28;99001;-76
2022/06/01 07:34:12;;;;;;;;;;;;;;;23.08;36.35;100944.38;4925643;28;98887;-77
2022/06/01 07:36:39;;;;;;;;;;;;;;;23.18;36.13;100937.22;4935465;28;97182;-76
2022/06/01 07:44:37;;;;;;;;;;;;;;;23.38;36.37;100939.06;4923667;28;97109;-76
2022/06/01 07:47:04;;;;;;;;;;;;;;;23.67;35.28;100930.34;4926967;28;97340;-75
2022/06/01 07:49:30;;;;;;;;;;;;;;;23.51;35.23;100946.97;4927115;28;98779;-75
2022/06/01 07:51:56;;;;;;;;;;;;;;;23.12;35.74;100944.97;4927407;28;97878;-79
2022/06/01 07:54:24;;;;;;;;;;;;;;;23.92;34.56;100945.22;4926214;28;98879;-77
2022/06/01 07:56:50;;;;;;;;;;;;;;;23.97;34.84;100930.31;4930416;28;96924;-78
2022/06/01 07:59:17;;;;;;;;;;;;;;;23.80;35.29;100937.22;4929704;28;96984;-77
2022/06/01 08:01:43;;;;;;;;;;;;;;;23.47;35.59;100939.25;4929969;28;99098;-78
2022/06/01 08:04:10;;;;;;;;;;;;;;;23.65;35.01;100940.41;4916204;28;98968;-77
2022/06/01 08:06:38;;;;;;;;;;;;;;;23.10;34.79;100942.44;4929157;28;97931;-79
2022/06/01 08:09:04;;;;;;;;;;;;;;;22.90;35.47;100946.81;4934705;28;97209;-78
2022/06/01 08:14:16;;;;;;;;;;;;;;;21.98;37.21;100949.03;4931856;28;97038;-77
2022/06/01 08:16:44;;;;;;;;;;;;;;;22.03;36.92;100942.28;4924766;28;96800;-77
2022/06/01 08:19:11;;;;;;;;;;;;;;;22.66;36.34;100944.25;4931539;28;97721;-79
2022/06/01 08:21:38;;;;;;;;;;;;;;;22.78;36.05;100942.41;4930926;28;100689;-79
2022/06/01 08:24:05;;;;;;;;;;;;;;;23.18;35.09;100939.06;4927835;28;99314;-78
2022/06/01 08:26:32;;;;;;;;;;;;;;;23.88;34.35;100944.66;4929726;28;98407;-77
2022/06/01 08:28:59;;;;;;;;;;;;;;;23.36;34.63;100954.53;4936377;28;97367;-79
2022/06/01 08:31:27;;;;;;;;;;;;;;;23.16;35.32;100944.59;4929928;28;98846;-77
2022/06/01 08:33:53;;;;;;;;;;;;;;;23.30;35.19;100952.34;4927834;28;98884;-79
2022/06/01 08:36:19;;;;;;;;;;;;;;;22.21;36.17;100956.09;4929054;28;97661;-77
2022/06/01 08:38:45;;;;;;;;;;;;;;;23.09;35.05;100953.31;4928091;28;97118;-78
2022/06/01 08:41:13;;;;;;;;;;;;;;;23.34;34.56;100947.56;4930747;28;97695;-78
2022/06/01 08:43:42;;;;;;;;;;;;;;;23.64;34.30;100957.56;4922128;28;99311;-79
2022/06/01 08:46:10;;;;;;;;;;;;;;;23.76;34.33;100956.53;4927848;28;97301;-78
2022/06/01 08:48:40;;;;;;;;;;;;;;;24.35;33.38;100956.63;4928828;28;96894;-79
2022/06/01 08:51:06;;;;;;;;;;;;;;;24.17;33.72;100955.53;4925890;28;98996;-80
2022/06/01 08:53:33;;;;;;;;;;;;;;;23.88;34.16;100959.97;4933365;28;99513;-77
2022/06/01 08:56:01;;;;;;;;;;;;;;;23.89;33.46;100959.00;4929724;28;97344;-78
2022/06/01 08:58:31;;;;;;;;;;;;;;;23.46;34.17;100959.97;4934136;28;96914;-78
2022/06/01 09:01:00;;;;;;;;;;;;;;;24.33;31.48;100965.88;4930351;28;98271;-77
2022/06/01 09:03:32;;;;;;;;;;;;;;;24.14;31.64;100967.50;4931673;28;103985;-77
2022/06/01 09:06:02;;;;;;;;;;;;;;;24.12;32.72;100966.75;4927834;28;97228;-78
2022/06/01 09:08:30;;;;;;;;;;;;;;;23.28;33.84;100961.56;4926786;28;97005;-77
2022/06/01 09:11:01;;;;;;;;;;;;;;;23.74;33.34;100970.13;4936868;28;100422;-78
2022/06/01 09:13:33;;;;;;;;;;;;;;;22.93;34.08;100967.22;4933817;28;98656;-77
2022/06/01 09:16:02;;;;;;;;;;;;;;;23.35;33.78;100966.31;4937633;28;97449;-77
2022/06/01 09:18:30;;;;;;;;;;;;;;;24.15;32.29;100965.66;4935994;28;96910;-77
2022/06/01 09:23:54;;;;;;;;;;;;;;;24.06;31.69;100970.00;4883795;28;97677;-76
2022/06/01 09:26:24;;;;;;;;;;;;;;;24.19;31.52;100962.56;4885419;28;96814;-77
2022/06/01 09:28:54;;;;;;;;;;;;;;;24.47;31.53;100965.50;4905668;28;97738;-78
2022/06/01 09:31:24;;;;;;;;;;;;;;;23.60;32.59;100961.53;4930086;28;98064;-78
2022/06/01 09:33:50;;;;;;;;;;;;;;;23.70;31.85;100963.28;4924672;28;99450;-78
2022/06/01 09:36:22;;;;;;;;;;;;;;;22.96;33.38;100954.38;4926365;28;96845;-77
2022/06/01 09:38:51;;;;;;;;;;;;;;;22.24;34.52;100955.88;4926314;28;99052;-77
2022/06/01 09:41:25;;;;;;;;;;;;;;;22.72;32.78;100944.72;4933782;28;98886;-76
2022/06/01 09:43:54;;;;;;;;;;;;;;;23.63;32.31;100950.50;4924215;28;98087;-78
2022/06/01 09:46:28;;;;;;;;;;;;;;;24.14;31.19;100945.03;4927226;28;97028;-76
2022/06/01 09:48:54;;;;;;;;;;;;;;;24.23;30.01;100944.22;4924778;28;97197;-78
2022/06/01 09:51:23;;;;;;;;;;;;;;;24.66;30.07;100940.38;4922822;28;100668;-77
2022/06/01 09:53:51;;;;;;;;;;;;;;;24.92;29.50;100934.31;4926498;28;99339;-78
2022/06/01 09:56:19;;;;;;;;;;;;;;;24.28;30.20;100930.34;4924848;28;98992;-77
2022/06/01 10:07:20;;;;;;;;;;;;;;;24.59;29.98;100921.16;4930331;28;96850;-77
2022/06/01 10:09:49;;;;;;;;;;;;;;;23.98;30.85;100915.84;4933212;28;96881;-78
2022/06/01 10:12:19;;;;;;;;;;;;;;;22.65;33.20;100915.59;4923580;28;98804;-77
2022/06/01 10:14:51;;;;;;;;;;;;;;;23.47;32.41;100915.00;4922803;28;99426;-79
2022/06/01 10:17:21;;;;;;;;;;;;;;;23.36;31.51;100905.16;4922967;28;97614;-78
2022/06/01 10:19:51;;;;;;;;;;;;;;;23.40;30.83;100909.28;4929271;28;96758;-78
2022/06/01 10:22:21;;;;;;;;;;;;;;;24.15;29.69;100909.81;4927941;28;99392;-78
2022/06/01 10:24:50;;;;;;;;;;;;;;;24.26;28.86;100899.91;4923737;28;98963;-78
2022/06/01 10:27:20;;;;;;;;;;;;;;;24.32;28.87;100893.97;4928131;28;98113;-77
2022/06/01 10:29:49;;;;;;;;;;;;;;;24.40;28.91;100902.22;4929892;28;96964;-78
2022/06/01 10:32:20;;;;;;;;;;;;;;;24.45;28.71;100894.56;4936077;28;99036;-79
2022/06/01 10:34:48;;;;;;;;;;;;;;;23.73;30.27;100894.72;4928943;28;99271;-76
2022/06/01 10:37:19;;;;;;;;;;;;;;;23.43;31.40;100890.16;4929341;28;96841;-77
2022/06/01 10:39:48;;;;;;;;;;;;;;;23.07;30.79;100894.16;4929231;28;96889;-77
2022/06/01 10:42:17;;;;;;;;;;;;;;;23.17;30.53;100892.38;4933636;28;98875;-78
2022/06/01 10:44:47;;;;;;;;;;;;;;;23.94;29.35;100879.34;4925220;28;97785;-78
2022/06/01 10:47:15;;;;;;;;;;;;;;;24.32;29.33;100875.06;4928879;28;96993;-78
2022/06/01 10:49:48;;;;;;;;;;;;;;;24.39;29.08;100879.75;4931602;28;96788;-79
2022/06/01 10:52:22;;;;;;;;;;;;;;;24.04;29.95;100879.34;4933976;28;99158;-78
2022/06/01 10:54:53;;;;;;;;;;;;;;;24.34;28.83;100876.63;4926220;28;98835;-78
2022/06/01 10:57:20;;;;;;;;;;;;;;;24.56;27.99;100875.50;4929470;28;98913;-78
2022/06/01 10:59:48;;;;;;;;;;;;;;;25.12;28.25;100878.38;4931574;28;97598;-78
2022/06/01 11:02:21;;;;;;;;;;;;;;;25.26;28.24;100879.78;4927299;28;99266;-79
2022/06/01 11:05:02;;;;;;;;;;;;;;;24.97;28.23;100866.28;4929584;28;98977;-78
2022/06/01 11:07:51;;;;;;;;;;;;;;;25.49;27.72;100867.59;4931747;28;97321;-79
2022/06/01 11:10:23;;;;;;;;;;;;;;;25.28;28.01;100864.25;4926027;28;98841;-79
2022/06/01 11:12:55;;;;;;;;;;;;;;;25.57;27.07;100856.03;4925126;28;99144;-78
2022/06/01 11:15:25;;;;;;;;;;;;;;;25.66;26.29;100860.63;4930846;28;98826;-77
2022/06/01 11:17:55;;;;;;;;;;;;;;;25.08;26.28;100868.81;4931045;28;96885;-79
2022/06/01 11:20:29;;;;;;;;;;;;;;;24.88;27.19;100869.81;4935739;28;96967;-78
2022/06/01 11:23:03;;;;;;;;;;;;;;;25.01;27.31;100859.59;4935578;28;98827;-78
2022/06/01 11:25:32;;;;;;;;;;;;;;;25.00;27.51;100855.22;4924547;28;99212;-77
2022/06/01 11:28:06;;;;;;;;;;;;;;;24.86;27.85;100852.91;4928655;28;97408;-78
2022/06/01 11:30:39;;;;;;;;;;;;;;;24.78;28.40;100864.44;4929774;28;96894;-79
2022/06/01 11:33:09;;;;;;;;;;;;;;;24.34;29.03;100857.72;4928952;28;97939;-79
2022/06/01 11:35:38;;;;;;;;;;;;;;;23.90;28.78;100860.84;4931659;28;100861;-77
2022/06/01 11:38:08;;;;;;;;;;;;;;;24.20;28.17;100858.13;4932607;28;96829;-77
2022/06/01 11:40:38;;;;;;;;;;;;;;;24.09;28.36;100855.53;4933233;28;97131;-77
2022/06/01 11:43:09;;;;;;;;;;;;;;;24.69;27.89;100861.72;4953942;28;99048;-78
2022/06/01 11:45:39;;;;;;;;;;;;;;;23.43;29.02;100865.88;4947294;28;98691;-77
2022/06/01 11:48:07;;;;;;;;;;;;;;;24.23;28.31;100863.22;4943544;28;97234;-78
2022/06/01 11:50:53;;;;;;;;;;;;;;;23.62;29.18;100852.53;4934473;28;97217;-77
2022/06/01 11:53:23;;;;;;;;;;;;;;;24.35;28.70;100854.00;4934753;28;99200;-78
2022/06/01 11:55:50;;;;;;;;;;;;;;;24.21;28.14;100865.25;4930836;28;99762;-78
2022/06/01 11:58:22;;;;;;;;;;;;;;;25.07;26.66;100853.63;4930288;28;96912;-78
2022/06/01 12:00:52;;;;;;;;;;;;;;;24.99;27.20;100859.75;4931066;28;97553;-78
2022/06/01 12:03:40;;;;;;;;;;;;;;;25.11;27.80;100859.59;4930475;28;99645;-78
2022/06/01 12:06:08;;;;;;;;;;;;;;;25.67;26.52;100852.31;4927911;28;97803;-79
2022/06/01 12:08:40;;;;;;;;;;;;;;;25.85;26.44;100849.69;4924330;28;97452;-79
2022/06/01 12:11:09;;;;;;;;;;;;;;;25.44;26.42;100850.97;4925889;28;96856;-77
2022/06/01 12:13:51;;;;;;;;;;;;;;;26.17;25.90;100839.25;4929460;28;99575;-78
2022/06/01 12:16:19;;;;;;;;;;;;;;;25.93;25.78;100841.66;4926677;28;97745;-78
2022/06/01 12:18:54;;;;;;;;;;;;;;;25.07;26.55;100850.94;4927928;28;97320;-78
2022/06/01 12:21:28;;;;;;;;;;;;;;;25.14;26.31;100856.59;4926373;28;96867;-78
2022/06/01 12:29:38;;;;;;;;;;;;;;;25.07;27.50;100856.34;4922631;28;99467;-78
2022/06/01 12:32:11;;;;;;;;;;;;;;;24.98;27.30;100855.34;4927018;28;97219;-79
2022/06/01 12:34:41;;;;;;;;;;;;;;;24.72;27.46;100846.09;4925015;28;99047;-77
2022/06/01 12:37:10;;;;;;;;;;;;;;;24.18;27.68;100847.44;4925843;28;97658;-77
2022/06/01 12:39:47;;;;;;;;;;;;;;;23.88;27.98;100846.66;4927575;28;96877;-77
2022/06/01 12:42:15;;;;;;;;;;;;;;;24.07;28.37;100850.25;4925523;28;96956;-78
2022/06/01 12:44:44;;;;;;;;;;;;;;;23.81;28.22;100852.59;4924451;28;100840;-78
2022/06/01 12:47:22;;;;;;;;;;;;;;;23.10;29.26;100861.56;4924895;28;98779;-78
2022/06/01 12:49:48;;;;;;;;;;;;;;;23.22;30.36;100873.13;4926000;28;96842;-79
2022/06/01 12:52:17;;;;;;;;;;;;;;;22.99;32.70;100899.34;4926898;28;97301;-79
2022/06/01 12:54:55;;;;;;;;;;;;;;;22.16;39.07;100932.25;4923992;28;99672;-79
2022/06/01 12:57:25;;;;;;;;;;;;;;;21.61;39.40;100940.25;4928501;28;99113;-78
2022/06/01 12:59:56;;;;;;;;;;;;;;;21.87;39.35;100931.84;4933556;28;97290;-78
2022/06/01 13:02:23;;;;;;;;;;;;;;;22.09;43.75;100922.09;4927154;28;98205;-77
2022/06/01 13:04:52;;;;;;;;;;;;;;;22.23;41.71;100936.16;4931645;28;99356;-77
2022/06/01 13:07:20;;;;;;;;;;;;;;;22.30;43.33;100944.59;4928923;28;98364;-76
2022/06/01 13:09:57;;;;;;;;;;;;;;;22.03;42.86;100944.97;4923689;28;96797;-78
2022/06/01 13:12:28;;;;;;;;;;;;;;;22.17;43.67;100962.72;4922583;28;97325;-78
2022/06/01 13:14:54;;;;;;;;;;;;;;;22.72;42.48;100950.97;4927151;28;98830;-78